sensor_id;sensor_type;location;lat;lon;timestamp;P1;durP1;ratioP1;P2;durP2;ratioP2
76850;SDS011;65824;43.726;20.692;2023-03-03T00:00:28;28.38;;;14.13;;
76850;SDS011;65824;43.726;20.692;2023-03-03T00:02:56;28.60;;;13.52;;
76850;SDS011;65824;43.726;20.692;2023-03-03T00:05:23;30.10;;;13.68;;
76850;SDS011;65824;43.726;20.692;2023-03-03T00:07:53;29.98;;;14.20;;
76850;SDS011;65824;43.726;20.692;2023-03-03T00:10:19;26.70;;;13.52;;
76850;SDS011;65824;43.726;20.692;2023-03-03T00:12:47;27.05;;;14.30;;
76850;SDS011;65824;43.726;20.692;2023-03-03T00:15:16;31.75;;;14.35;;
76850;SDS011;65824;43.726;20.692;2023-03-03T00:17:43;28.70;;;13.90;;
76850;SDS011;65824;43.726;20.692;2023-03-03T00:20:29;28.50;;;13.95;;
76850;SDS011;65824;43.726;20.692;2023-03-03T00:25:32;26.75;;;12.98;;
76850;SDS011;65824;43.726;20.692;2023-03-03T00:30:53;28.30;;;12.95;;
76850;SDS011;65824;43.726;20.692;2023-03-03T00:35:58;24.83;;;12.45;;
76850;SDS011;65824;43.726;20.692;2023-03-03T00:38:35;28.50;;;13.00;;
76850;SDS011;65824;43.726;20.692;2023-03-03T00:41:01;27.98;;;13.60;;
76850;SDS011;65824;43.726;20.692;2023-03-03T00:43:33;28.15;;;13.63;;
76850;SDS011;65824;43.726;20.692;2023-03-03T00:46:02;29.45;;;13.75;;
76850;SDS011;65824;43.726;20.692;2023-03-03T00:56:13;26.80;;;12.68;;
76850;SDS011;65824;43.726;20.692;2023-03-03T00:58:38;28.77;;;13.65;;
76850;SDS011;65824;43.726;20.692;2023-03-03T01:01:04;28.80;;;13.52;;
76850;SDS011;65824;43.726;20.692;2023-03-03T01:03:34;29.73;;;13.82;;
76850;SDS011;65824;43.726;20.692;2023-03-03T01:06:00;26.73;;;12.98;;
76850;SDS011;65824;43.726;20.692;2023-03-03T01:08:25;25.90;;;12.45;;
76850;SDS011;65824;43.726;20.692;2023-03-03T01:10:51;27.85;;;13.10;;
76850;SDS011;65824;43.726;20.692;2023-03-03T01:13:22;28.60;;;13.30;;
76850;SDS011;65824;43.726;20.692;2023-03-03T01:15:53;29.27;;;12.93;;
76850;SDS011;65824;43.726;20.692;2023-03-03T01:18:19;28.05;;;13.07;;
76850;SDS011;65824;43.726;20.692;2023-03-03T01:20:44;26.98;;;12.52;;
76850;SDS011;65824;43.726;20.692;2023-03-03T01:23:15;25.85;;;12.65;;
76850;SDS011;65824;43.726;20.692;2023-03-03T01:25:40;30.05;;;14.30;;
76850;SDS011;65824;43.726;20.692;2023-03-03T01:28:08;32.13;;;15.35;;
76850;SDS011;65824;43.726;20.692;2023-03-03T01:30:34;29.60;;;13.13;;
76850;SDS011;65824;43.726;20.692;2023-03-03T01:33:01;27.40;;;14.00;;
76850;SDS011;65824;43.726;20.692;2023-03-03T01:35:28;28.60;;;13.90;;
76850;SDS011;65824;43.726;20.692;2023-03-03T01:37:54;28.70;;;12.75;;
76850;SDS011;65824;43.726;20.692;2023-03-03T01:40:21;29.67;;;14.25;;
76850;SDS011;65824;43.726;20.692;2023-03-03T01:42:48;26.85;;;13.05;;
76850;SDS011;65824;43.726;20.692;2023-03-03T01:47:43;30.88;;;15.38;;
76850;SDS011;65824;43.726;20.692;2023-03-03T01:50:12;26.52;;;13.00;;
76850;SDS011;65824;43.726;20.692;2023-03-03T01:52:40;27.75;;;12.93;;
76850;SDS011;65824;43.726;20.692;2023-03-03T01:55:29;29.20;;;13.27;;
76850;SDS011;65824;43.726;20.692;2023-03-03T01:58:01;28.65;;;13.27;;
76850;SDS011;65824;43.726;20.692;2023-03-03T02:00:29;26.65;;;13.18;;
76850;SDS011;65824;43.726;20.692;2023-03-03T02:02:56;29.67;;;13.55;;
76850;SDS011;65824;43.726;20.692;2023-03-03T02:05:22;28.38;;;13.48;;
76850;SDS011;65824;43.726;20.692;2023-03-03T02:07:48;32.40;;;14.48;;
76850;SDS011;65824;43.726;20.692;2023-03-03T02:10:15;26.65;;;13.52;;
76850;SDS011;65824;43.726;20.692;2023-03-03T02:12:44;28.52;;;13.55;;
76850;SDS011;65824;43.726;20.692;2023-03-03T02:17:45;25.42;;;13.00;;
76850;SDS011;65824;43.726;20.692;2023-03-03T02:20:13;25.77;;;12.05;;
76850;SDS011;65824;43.726;20.692;2023-03-03T02:22:47;27.58;;;13.52;;
76850;SDS011;65824;43.726;20.692;2023-03-03T02:25:19;27.52;;;12.13;;
76850;SDS011;65824;43.726;20.692;2023-03-03T02:27:49;28.65;;;13.27;;
76850;SDS011;65824;43.726;20.692;2023-03-03T02:30:19;27.88;;;12.70;;
76850;SDS011;65824;43.726;20.692;2023-03-03T02:32:45;26.80;;;12.55;;
76850;SDS011;65824;43.726;20.692;2023-03-03T02:35:28;27.45;;;13.10;;
76850;SDS011;65824;43.726;20.692;2023-03-03T02:40:46;28.42;;;13.55;;
76850;SDS011;65824;43.726;20.692;2023-03-03T02:43:17;29.52;;;13.63;;
76850;SDS011;65824;43.726;20.692;2023-03-03T02:45:44;30.55;;;12.73;;
76850;SDS011;65824;43.726;20.692;2023-03-03T02:48:10;25.80;;;12.50;;
76850;SDS011;65824;43.726;20.692;2023-03-03T02:50:37;28.08;;;12.60;;
76850;SDS011;65824;43.726;20.692;2023-03-03T02:53:02;26.90;;;13.32;;
76850;SDS011;65824;43.726;20.692;2023-03-03T02:55:30;28.58;;;13.75;;
76850;SDS011;65824;43.726;20.692;2023-03-03T02:57:56;28.58;;;12.77;;
76850;SDS011;65824;43.726;20.692;2023-03-03T03:00:21;30.33;;;13.48;;
76850;SDS011;65824;43.726;20.692;2023-03-03T03:02:48;29.05;;;12.38;;
76850;SDS011;65824;43.726;20.692;2023-03-03T03:05:15;28.55;;;13.80;;
76850;SDS011;65824;43.726;20.692;2023-03-03T03:07:40;28.20;;;13.82;;
76850;SDS011;65824;43.726;20.692;2023-03-03T03:10:06;23.60;;;12.70;;
76850;SDS011;65824;43.726;20.692;2023-03-03T03:12:32;30.88;;;13.00;;
76850;SDS011;65824;43.726;20.692;2023-03-03T03:14:57;27.75;;;13.32;;
76850;SDS011;65824;43.726;20.692;2023-03-03T03:17:22;26.15;;;12.88;;
76850;SDS011;65824;43.726;20.692;2023-03-03T03:19:48;28.27;;;13.43;;
76850;SDS011;65824;43.726;20.692;2023-03-03T03:22:13;27.55;;;13.35;;
76850;SDS011;65824;43.726;20.692;2023-03-03T03:24:39;27.65;;;12.60;;
76850;SDS011;65824;43.726;20.692;2023-03-03T03:27:04;26.15;;;12.75;;
76850;SDS011;65824;43.726;20.692;2023-03-03T03:29:30;25.75;;;12.77;;
76850;SDS011;65824;43.726;20.692;2023-03-03T03:31:57;26.92;;;13.05;;
76850;SDS011;65824;43.726;20.692;2023-03-03T03:34:22;27.70;;;14.77;;
76850;SDS011;65824;43.726;20.692;2023-03-03T03:36:47;30.70;;;13.50;;
76850;SDS011;65824;43.726;20.692;2023-03-03T03:39:14;29.27;;;13.32;;
76850;SDS011;65824;43.726;20.692;2023-03-03T03:41:39;29.35;;;13.60;;
76850;SDS011;65824;43.726;20.692;2023-03-03T03:44:07;31.00;;;12.93;;
76850;SDS011;65824;43.726;20.692;2023-03-03T03:46:33;28.60;;;13.55;;
76850;SDS011;65824;43.726;20.692;2023-03-03T03:48:58;27.50;;;12.85;;
76850;SDS011;65824;43.726;20.692;2023-03-03T03:51:24;30.52;;;13.23;;
76850;SDS011;65824;43.726;20.692;2023-03-03T03:53:49;23.58;;;12.18;;
76850;SDS011;65824;43.726;20.692;2023-03-03T03:56:15;27.67;;;12.82;;
76850;SDS011;65824;43.726;20.692;2023-03-03T03:58:41;28.00;;;12.85;;
76850;SDS011;65824;43.726;20.692;2023-03-03T04:01:07;28.10;;;13.07;;
76850;SDS011;65824;43.726;20.692;2023-03-03T04:03:34;22.95;;;12.23;;
76850;SDS011;65824;43.726;20.692;2023-03-03T04:05:59;28.45;;;12.88;;
76850;SDS011;65824;43.726;20.692;2023-03-03T04:08:26;25.83;;;11.70;;
76850;SDS011;65824;43.726;20.692;2023-03-03T04:10:52;30.95;;;13.57;;
76850;SDS011;65824;43.726;20.692;2023-03-03T04:13:17;25.63;;;12.02;;
76850;SDS011;65824;43.726;20.692;2023-03-03T04:15:43;24.50;;;12.57;;
76850;SDS011;65824;43.726;20.692;2023-03-03T04:18:09;28.15;;;12.32;;
76850;SDS011;65824;43.726;20.692;2023-03-03T04:20:34;26.35;;;12.27;;
76850;SDS011;65824;43.726;20.692;2023-03-03T04:23:00;24.92;;;12.02;;
76850;SDS011;65824;43.726;20.692;2023-03-03T04:25:26;25.25;;;12.40;;
76850;SDS011;65824;43.726;20.692;2023-03-03T04:27:52;25.55;;;13.05;;
76850;SDS011;65824;43.726;20.692;2023-03-03T04:30:18;31.35;;;13.23;;
76850;SDS011;65824;43.726;20.692;2023-03-03T04:32:44;28.60;;;13.48;;
76850;SDS011;65824;43.726;20.692;2023-03-03T04:35:10;30.17;;;14.02;;
76850;SDS011;65824;43.726;20.692;2023-03-03T04:37:36;29.95;;;13.32;;
76850;SDS011;65824;43.726;20.692;2023-03-03T04:40:03;28.20;;;14.05;;
76850;SDS011;65824;43.726;20.692;2023-03-03T04:42:30;29.88;;;14.07;;
76850;SDS011;65824;43.726;20.692;2023-03-03T04:44:56;32.35;;;14.80;;
76850;SDS011;65824;43.726;20.692;2023-03-03T04:47:22;29.67;;;13.90;;
76850;SDS011;65824;43.726;20.692;2023-03-03T04:49:50;29.92;;;13.65;;
76850;SDS011;65824;43.726;20.692;2023-03-03T04:52:15;29.58;;;13.32;;
76850;SDS011;65824;43.726;20.692;2023-03-03T04:54:41;34.95;;;14.73;;
76850;SDS011;65824;43.726;20.692;2023-03-03T04:57:08;30.90;;;13.93;;
76850;SDS011;65824;43.726;20.692;2023-03-03T04:59:34;32.63;;;14.55;;
76850;SDS011;65824;43.726;20.692;2023-03-03T05:02:01;31.38;;;14.85;;
76850;SDS011;65824;43.726;20.692;2023-03-03T05:04:28;80.20;;;27.45;;
76850;SDS011;65824;43.726;20.692;2023-03-03T05:06:54;61.35;;;24.55;;
76850;SDS011;65824;43.726;20.692;2023-03-03T05:09:21;37.70;;;16.42;;
76850;SDS011;65824;43.726;20.692;2023-03-03T05:11:47;33.55;;;15.38;;
76850;SDS011;65824;43.726;20.692;2023-03-03T05:14:13;32.22;;;15.55;;
76850;SDS011;65824;43.726;20.692;2023-03-03T05:16:38;33.88;;;15.45;;
76850;SDS011;65824;43.726;20.692;2023-03-03T05:19:04;34.97;;;16.38;;
76850;SDS011;65824;43.726;20.692;2023-03-03T05:21:29;35.17;;;15.52;;
76850;SDS011;65824;43.726;20.692;2023-03-03T05:23:55;30.58;;;15.07;;
76850;SDS011;65824;43.726;20.692;2023-03-03T05:26:22;32.42;;;14.93;;
76850;SDS011;65824;43.726;20.692;2023-03-03T05:28:47;27.92;;;14.18;;
76850;SDS011;65824;43.726;20.692;2023-03-03T05:31:13;31.15;;;15.00;;
76850;SDS011;65824;43.726;20.692;2023-03-03T05:33:38;33.05;;;16.17;;
76850;SDS011;65824;43.726;20.692;2023-03-03T05:36:04;37.97;;;18.60;;
76850;SDS011;65824;43.726;20.692;2023-03-03T05:38:30;212.27;;;69.10;;
76850;SDS011;65824;43.726;20.692;2023-03-03T05:40:55;83.28;;;33.30;;
76850;SDS011;65824;43.726;20.692;2023-03-03T05:43:21;51.50;;;22.35;;
76850;SDS011;65824;43.726;20.692;2023-03-03T05:45:46;36.00;;;17.20;;
76850;SDS011;65824;43.726;20.692;2023-03-03T05:48:12;35.75;;;16.10;;
76850;SDS011;65824;43.726;20.692;2023-03-03T05:50:37;33.30;;;15.63;;
76850;SDS011;65824;43.726;20.692;2023-03-03T05:53:04;31.13;;;14.95;;
76850;SDS011;65824;43.726;20.692;2023-03-03T05:55:29;31.27;;;15.30;;
76850;SDS011;65824;43.726;20.692;2023-03-03T05:57:56;30.17;;;15.02;;
76850;SDS011;65824;43.726;20.692;2023-03-03T06:00:21;33.40;;;16.20;;
76850;SDS011;65824;43.726;20.692;2023-03-03T06:02:48;47.45;;;21.48;;
76850;SDS011;65824;43.726;20.692;2023-03-03T06:05:13;45.72;;;20.92;;
76850;SDS011;65824;43.726;20.692;2023-03-03T06:07:39;33.60;;;16.92;;
76850;SDS011;65824;43.726;20.692;2023-03-03T06:10:05;38.88;;;17.70;;
76850;SDS011;65824;43.726;20.692;2023-03-03T06:12:31;40.38;;;18.27;;
76850;SDS011;65824;43.726;20.692;2023-03-03T06:14:56;38.75;;;20.23;;
76850;SDS011;65824;43.726;20.692;2023-03-03T06:17:23;45.67;;;20.67;;
76850;SDS011;65824;43.726;20.692;2023-03-03T06:19:48;47.28;;;22.48;;
76850;SDS011;65824;43.726;20.692;2023-03-03T06:22:14;31.83;;;16.48;;
76850;SDS011;65824;43.726;20.692;2023-03-03T06:24:40;37.22;;;17.60;;
76850;SDS011;65824;43.726;20.692;2023-03-03T06:27:06;38.40;;;17.38;;
76850;SDS011;65824;43.726;20.692;2023-03-03T06:29:31;38.90;;;17.33;;
76850;SDS011;65824;43.726;20.692;2023-03-03T06:31:58;37.17;;;17.98;;
76850;SDS011;65824;43.726;20.692;2023-03-03T06:34:24;34.92;;;16.80;;
76850;SDS011;65824;43.726;20.692;2023-03-03T06:36:52;36.92;;;18.08;;
76850;SDS011;65824;43.726;20.692;2023-03-03T06:39:18;38.90;;;19.02;;
76850;SDS011;65824;43.726;20.692;2023-03-03T06:41:44;38.85;;;17.45;;
76850;SDS011;65824;43.726;20.692;2023-03-03T06:44:09;38.83;;;18.13;;
76850;SDS011;65824;43.726;20.692;2023-03-03T06:46:36;39.15;;;17.48;;
76850;SDS011;65824;43.726;20.692;2023-03-03T06:49:01;32.20;;;14.95;;
76850;SDS011;65824;43.726;20.692;2023-03-03T06:53:59;38.95;;;17.60;;
76850;SDS011;65824;43.726;20.692;2023-03-03T06:56:27;31.98;;;16.38;;
76850;SDS011;65824;43.726;20.692;2023-03-03T06:58:57;36.58;;;17.48;;
76850;SDS011;65824;43.726;20.692;2023-03-03T07:01:23;33.90;;;16.40;;
76850;SDS011;65824;43.726;20.692;2023-03-03T07:03:50;39.20;;;17.27;;
76850;SDS011;65824;43.726;20.692;2023-03-03T07:06:22;35.00;;;17.58;;
76850;SDS011;65824;43.726;20.692;2023-03-03T07:08:51;34.55;;;16.70;;
76850;SDS011;65824;43.726;20.692;2023-03-03T07:11:18;38.88;;;16.55;;
76850;SDS011;65824;43.726;20.692;2023-03-03T07:13:46;39.67;;;17.10;;
76850;SDS011;65824;43.726;20.692;2023-03-03T07:16:14;37.40;;;16.85;;
76850;SDS011;65824;43.726;20.692;2023-03-03T07:21:25;36.83;;;17.83;;
76850;SDS011;65824;43.726;20.692;2023-03-03T07:23:56;34.35;;;15.55;;
76850;SDS011;65824;43.726;20.692;2023-03-03T07:26:24;40.25;;;17.73;;
76850;SDS011;65824;43.726;20.692;2023-03-03T07:29:03;38.75;;;16.80;;
76850;SDS011;65824;43.726;20.692;2023-03-03T07:31:44;39.00;;;17.48;;
76850;SDS011;65824;43.726;20.692;2023-03-03T07:34:24;34.28;;;17.30;;
76850;SDS011;65824;43.726;20.692;2023-03-03T07:37:19;33.83;;;16.33;;
76850;SDS011;65824;43.726;20.692;2023-03-03T07:39:46;35.13;;;17.35;;
76850;SDS011;65824;43.726;20.692;2023-03-03T07:42:22;39.88;;;19.77;;
76850;SDS011;65824;43.726;20.692;2023-03-03T07:45:00;41.88;;;17.63;;
76850;SDS011;65824;43.726;20.692;2023-03-03T07:47:27;36.22;;;17.58;;
76850;SDS011;65824;43.726;20.692;2023-03-03T07:49:55;38.40;;;18.20;;
76850;SDS011;65824;43.726;20.692;2023-03-03T07:52:41;38.85;;;17.67;;
76850;SDS011;65824;43.726;20.692;2023-03-03T07:58:21;35.08;;;17.08;;
76850;SDS011;65824;43.726;20.692;2023-03-03T08:03:55;36.00;;;16.85;;
76850;SDS011;65824;43.726;20.692;2023-03-03T08:11:46;31.92;;;15.25;;
76850;SDS011;65824;43.726;20.692;2023-03-03T08:14:14;35.45;;;16.75;;
76850;SDS011;65824;43.726;20.692;2023-03-03T08:16:40;32.63;;;17.17;;
76850;SDS011;65824;43.726;20.692;2023-03-03T08:19:09;35.60;;;19.88;;
76850;SDS011;65824;43.726;20.692;2023-03-03T08:21:36;34.50;;;16.83;;
76850;SDS011;65824;43.726;20.692;2023-03-03T08:24:01;33.20;;;15.48;;
76850;SDS011;65824;43.726;20.692;2023-03-03T08:26:27;34.97;;;17.05;;
76850;SDS011;65824;43.726;20.692;2023-03-03T08:28:53;39.50;;;18.88;;
76850;SDS011;65824;43.726;20.692;2023-03-03T08:31:19;35.03;;;17.20;;
76850;SDS011;65824;43.726;20.692;2023-03-03T08:33:45;47.55;;;22.20;;
76850;SDS011;65824;43.726;20.692;2023-03-03T08:36:10;37.42;;;17.55;;
76850;SDS011;65824;43.726;20.692;2023-03-03T08:38:37;33.38;;;16.40;;
76850;SDS011;65824;43.726;20.692;2023-03-03T08:41:04;35.80;;;17.08;;
76850;SDS011;65824;43.726;20.692;2023-03-03T08:43:29;37.08;;;18.67;;
76850;SDS011;65824;43.726;20.692;2023-03-03T08:45:59;30.23;;;15.30;;
76850;SDS011;65824;43.726;20.692;2023-03-03T08:48:29;35.40;;;17.08;;
76850;SDS011;65824;43.726;20.692;2023-03-03T08:50:55;34.40;;;17.17;;
76850;SDS011;65824;43.726;20.692;2023-03-03T08:53:21;32.95;;;16.35;;
76850;SDS011;65824;43.726;20.692;2023-03-03T08:55:50;30.55;;;15.55;;
76850;SDS011;65824;43.726;20.692;2023-03-03T08:58:19;32.30;;;17.40;;
76850;SDS011;65824;43.726;20.692;2023-03-03T09:00:48;36.38;;;17.58;;
76850;SDS011;65824;43.726;20.692;2023-03-03T09:03:13;36.50;;;19.38;;
76850;SDS011;65824;43.726;20.692;2023-03-03T09:05:39;35.08;;;18.38;;
76850;SDS011;65824;43.726;20.692;2023-03-03T09:08:06;36.20;;;17.42;;
76850;SDS011;65824;43.726;20.692;2023-03-03T09:10:32;54.65;;;24.92;;
76850;SDS011;65824;43.726;20.692;2023-03-03T09:13:06;41.35;;;20.90;;
76850;SDS011;65824;43.726;20.692;2023-03-03T09:15:40;36.20;;;17.45;;
76850;SDS011;65824;43.726;20.692;2023-03-03T09:18:17;33.20;;;17.70;;
76850;SDS011;65824;43.726;20.692;2023-03-03T09:20:54;37.88;;;19.00;;
76850;SDS011;65824;43.726;20.692;2023-03-03T09:29:22;35.10;;;17.38;;
76850;SDS011;65824;43.726;20.692;2023-03-03T09:31:51;37.28;;;16.90;;
76850;SDS011;65824;43.726;20.692;2023-03-03T09:34:22;32.63;;;17.42;;
76850;SDS011;65824;43.726;20.692;2023-03-03T09:36:52;36.75;;;18.05;;
76850;SDS011;65824;43.726;20.692;2023-03-03T09:39:28;32.30;;;16.40;;
76850;SDS011;65824;43.726;20.692;2023-03-03T09:44:52;102.78;;;39.45;;
76850;SDS011;65824;43.726;20.692;2023-03-03T09:53:08;34.92;;;17.73;;
76850;SDS011;65824;43.726;20.692;2023-03-03T09:55:43;33.50;;;16.63;;
76850;SDS011;65824;43.726;20.692;2023-03-03T09:58:44;34.40;;;17.98;;
76850;SDS011;65824;43.726;20.692;2023-03-03T10:01:35;27.20;;;15.40;;
76850;SDS011;65824;43.726;20.692;2023-03-03T10:09:17;31.35;;;16.67;;
76850;SDS011;65824;43.726;20.692;2023-03-03T10:12:09;34.22;;;16.73;;
76850;SDS011;65824;43.726;20.692;2023-03-03T10:29:07;25.08;;;12.98;;
76850;SDS011;65824;43.726;20.692;2023-03-03T10:37:26;29.70;;;15.45;;
76850;SDS011;65824;43.726;20.692;2023-03-03T10:40:19;28.92;;;16.95;;
76850;SDS011;65824;43.726;20.692;2023-03-03T10:45:51;32.25;;;16.30;;
76850;SDS011;65824;43.726;20.692;2023-03-03T10:52:21;27.33;;;15.68;;
76850;SDS011;65824;43.726;20.692;2023-03-03T10:57:58;33.45;;;18.23;;
76850;SDS011;65824;43.726;20.692;2023-03-03T11:01:07;34.90;;;19.38;;
76850;SDS011;65824;43.726;20.692;2023-03-03T11:04:13;33.42;;;19.45;;
76850;SDS011;65824;43.726;20.692;2023-03-03T11:12:42;31.33;;;17.45;;
76850;SDS011;65824;43.726;20.692;2023-03-03T11:39:54;20.00;;;11.95;;
76850;SDS011;65824;43.726;20.692;2023-03-03T11:45:18;24.20;;;11.30;;
76850;SDS011;65824;43.726;20.692;2023-03-03T11:48:11;24.25;;;12.20;;
76850;SDS011;65824;43.726;20.692;2023-03-03T11:56:46;23.15;;;11.48;;
76850;SDS011;65824;43.726;20.692;2023-03-03T12:05:17;26.83;;;12.43;;
76850;SDS011;65824;43.726;20.692;2023-03-03T12:10:42;25.95;;;13.05;;
76850;SDS011;65824;43.726;20.692;2023-03-03T12:13:47;26.05;;;11.77;;
76850;SDS011;65824;43.726;20.692;2023-03-03T12:16:30;22.35;;;11.25;;
76850;SDS011;65824;43.726;20.692;2023-03-03T12:19:24;21.60;;;11.23;;
76850;SDS011;65824;43.726;20.692;2023-03-03T12:27:48;23.25;;;11.90;;
76850;SDS011;65824;43.726;20.692;2023-03-03T12:32:57;20.20;;;9.20;;
76850;SDS011;65824;43.726;20.692;2023-03-03T12:36:00;20.58;;;9.48;;
76850;SDS011;65824;43.726;20.692;2023-03-03T12:41:48;18.77;;;10.23;;
76850;SDS011;65824;43.726;20.692;2023-03-03T12:47:35;22.27;;;11.02;;
76850;SDS011;65824;43.726;20.692;2023-03-03T12:52:53;27.35;;;13.15;;
76850;SDS011;65824;43.726;20.692;2023-03-03T12:56:05;26.23;;;12.88;;
76850;SDS011;65824;43.726;20.692;2023-03-03T13:04:03;20.73;;;11.05;;
76850;SDS011;65824;43.726;20.692;2023-03-03T13:06:39;18.17;;;8.95;;
76850;SDS011;65824;43.726;20.692;2023-03-03T13:12:05;21.20;;;10.90;;
76850;SDS011;65824;43.726;20.692;2023-03-03T13:23:16;25.63;;;8.85;;
76850;SDS011;65824;43.726;20.692;2023-03-03T13:31:02;20.30;;;9.95;;
76850;SDS011;65824;43.726;20.692;2023-03-03T13:33:33;18.10;;;8.95;;
76850;SDS011;65824;43.726;20.692;2023-03-03T13:36:01;20.77;;;10.75;;
76850;SDS011;65824;43.726;20.692;2023-03-03T13:38:39;23.05;;;10.30;;
76850;SDS011;65824;43.726;20.692;2023-03-03T13:52:04;21.13;;;10.13;;
76850;SDS011;65824;43.726;20.692;2023-03-03T14:03:26;21.85;;;10.23;;
76850;SDS011;65824;43.726;20.692;2023-03-03T14:05:59;20.90;;;10.25;;
76850;SDS011;65824;43.726;20.692;2023-03-03T14:13:43;18.40;;;8.35;;
76850;SDS011;65824;43.726;20.692;2023-03-03T14:19:19;18.15;;;10.73;;
76850;SDS011;65824;43.726;20.692;2023-03-03T14:25:05;16.10;;;8.75;;
76850;SDS011;65824;43.726;20.692;2023-03-03T14:30:28;16.08;;;8.48;;
76850;SDS011;65824;43.726;20.692;2023-03-03T14:33:15;13.00;;;7.47;;
76850;SDS011;65824;43.726;20.692;2023-03-03T14:38:18;13.48;;;8.30;;
76850;SDS011;65824;43.726;20.692;2023-03-03T14:40:48;19.65;;;8.95;;
76850;SDS011;65824;43.726;20.692;2023-03-03T14:44:20;16.60;;;8.75;;
76850;SDS011;65824;43.726;20.692;2023-03-03T14:46:46;20.95;;;9.98;;
76850;SDS011;65824;43.726;20.692;2023-03-03T14:49:31;18.17;;;9.05;;
76850;SDS011;65824;43.726;20.692;2023-03-03T14:54:40;16.33;;;8.25;;
76850;SDS011;65824;43.726;20.692;2023-03-03T15:05:19;25.20;;;11.73;;
76850;SDS011;65824;43.726;20.692;2023-03-03T15:07:48;21.63;;;11.50;;
76850;SDS011;65824;43.726;20.692;2023-03-03T15:10:36;22.42;;;10.70;;
76850;SDS011;65824;43.726;20.692;2023-03-03T15:13:30;22.95;;;11.13;;
76850;SDS011;65824;43.726;20.692;2023-03-03T15:21:29;18.88;;;9.77;;
76850;SDS011;65824;43.726;20.692;2023-03-03T15:29:32;23.08;;;10.80;;
76850;SDS011;65824;43.726;20.692;2023-03-03T15:46:32;25.88;;;13.48;;
76850;SDS011;65824;43.726;20.692;2023-03-03T15:51:57;25.70;;;12.55;;
76850;SDS011;65824;43.726;20.692;2023-03-03T16:03:00;24.13;;;12.00;;
76850;SDS011;65824;43.726;20.692;2023-03-03T16:05:39;20.85;;;10.32;;
76850;SDS011;65824;43.726;20.692;2023-03-03T16:11:08;25.67;;;11.90;;
76850;SDS011;65824;43.726;20.692;2023-03-03T16:16:49;25.17;;;12.43;;
76850;SDS011;65824;43.726;20.692;2023-03-03T16:27:39;25.60;;;13.05;;
76850;SDS011;65824;43.726;20.692;2023-03-03T16:33:08;27.80;;;14.07;;
76850;SDS011;65824;43.726;20.692;2023-03-03T16:39:00;26.00;;;13.45;;
76850;SDS011;65824;43.726;20.692;2023-03-03T16:46:30;27.80;;;13.93;;
76850;SDS011;65824;43.726;20.692;2023-03-03T16:51:55;29.73;;;14.55;;
76850;SDS011;65824;43.726;20.692;2023-03-03T16:54:36;27.52;;;13.57;;
76850;SDS011;65824;43.726;20.692;2023-03-03T17:06:03;30.27;;;15.65;;
76850;SDS011;65824;43.726;20.692;2023-03-03T17:14:29;36.33;;;17.42;;
76850;SDS011;65824;43.726;20.692;2023-03-03T17:20:43;36.83;;;16.38;;
76850;SDS011;65824;43.726;20.692;2023-03-03T17:25:45;36.55;;;17.48;;
76850;SDS011;65824;43.726;20.692;2023-03-03T17:36:19;35.22;;;17.73;;
76850;SDS011;65824;43.726;20.692;2023-03-03T17:46:51;43.70;;;17.52;;
76850;SDS011;65824;43.726;20.692;2023-03-03T18:23:21;42.35;;;19.13;;
76850;SDS011;65824;43.726;20.692;2023-03-03T18:25:58;39.45;;;18.63;;
76850;SDS011;65824;43.726;20.692;2023-03-03T18:34:06;41.53;;;19.30;;
76850;SDS011;65824;43.726;20.692;2023-03-03T18:36:59;44.40;;;21.00;;
76850;SDS011;65824;43.726;20.692;2023-03-03T18:48:26;42.35;;;20.33;;
76850;SDS011;65824;43.726;20.692;2023-03-03T18:50:42;43.67;;;19.95;;
76850;SDS011;65824;43.726;20.692;2023-03-03T18:55:46;49.22;;;19.65;;
76850;SDS011;65824;43.726;20.692;2023-03-03T19:01:10;47.97;;;19.70;;
76850;SDS011;65824;43.726;20.692;2023-03-03T19:04:19;47.40;;;20.30;;
76850;SDS011;65824;43.726;20.692;2023-03-03T19:09:17;49.90;;;24.27;;
76850;SDS011;65824;43.726;20.692;2023-03-03T19:11:51;48.90;;;22.27;;
76850;SDS011;65824;43.726;20.692;2023-03-03T19:16:52;50.85;;;22.65;;
76850;SDS011;65824;43.726;20.692;2023-03-03T19:19:19;77.25;;;35.70;;
76850;SDS011;65824;43.726;20.692;2023-03-03T19:21:50;59.10;;;26.27;;
76850;SDS011;65824;43.726;20.692;2023-03-03T19:24:32;54.20;;;24.08;;
76850;SDS011;65824;43.726;20.692;2023-03-03T20:02:56;56.28;;;22.55;;
76850;SDS011;65824;43.726;20.692;2023-03-03T20:05:38;55.88;;;23.10;;
76850;SDS011;65824;43.726;20.692;2023-03-03T20:08:32;55.35;;;22.42;;
76850;SDS011;65824;43.726;20.692;2023-03-03T20:13:47;57.42;;;24.27;;
76850;SDS011;65824;43.726;20.692;2023-03-03T20:29:53;55.92;;;24.92;;
76850;SDS011;65824;43.726;20.692;2023-03-03T20:32:39;52.80;;;24.02;;
76850;SDS011;65824;43.726;20.692;2023-03-03T20:46:33;54.70;;;24.77;;
76850;SDS011;65824;43.726;20.692;2023-03-03T20:49:00;57.58;;;25.92;;
76850;SDS011;65824;43.726;20.692;2023-03-03T20:54:23;57.55;;;24.48;;
76850;SDS011;65824;43.726;20.692;2023-03-03T20:57:13;51.83;;;23.85;;
76850;SDS011;65824;43.726;20.692;2023-03-03T21:02:35;55.10;;;24.33;;
76850;SDS011;65824;43.726;20.692;2023-03-03T21:05:30;51.60;;;23.52;;
76850;SDS011;65824;43.726;20.692;2023-03-03T21:08:15;51.70;;;23.15;;
76850;SDS011;65824;43.726;20.692;2023-03-03T21:11:07;54.70;;;25.10;;
76850;SDS011;65824;43.726;20.692;2023-03-03T21:13:34;56.15;;;24.90;;
76850;SDS011;65824;43.726;20.692;2023-03-03T21:16:09;53.97;;;23.75;;
76850;SDS011;65824;43.726;20.692;2023-03-03T21:21:34;52.40;;;23.48;;
76850;SDS011;65824;43.726;20.692;2023-03-03T21:24:01;59.30;;;23.58;;
76850;SDS011;65824;43.726;20.692;2023-03-03T21:32:01;54.17;;;24.55;;
76850;SDS011;65824;43.726;20.692;2023-03-03T21:35:09;50.58;;;22.42;;
76850;SDS011;65824;43.726;20.692;2023-03-03T21:37:53;53.58;;;24.17;;
76850;SDS011;65824;43.726;20.692;2023-03-03T21:40:29;57.53;;;24.17;;
76850;SDS011;65824;43.726;20.692;2023-03-03T21:42:56;51.25;;;21.77;;
76850;SDS011;65824;43.726;20.692;2023-03-03T21:45:23;56.95;;;23.05;;
76850;SDS011;65824;43.726;20.692;2023-03-03T21:47:51;57.67;;;22.95;;
76850;SDS011;65824;43.726;20.692;2023-03-03T21:50:19;48.58;;;21.08;;
76850;SDS011;65824;43.726;20.692;2023-03-03T21:52:47;55.22;;;24.35;;
76850;SDS011;65824;43.726;20.692;2023-03-03T21:55:12;53.03;;;22.48;;
76850;SDS011;65824;43.726;20.692;2023-03-03T21:57:38;55.20;;;23.65;;
76850;SDS011;65824;43.726;20.692;2023-03-03T22:00:04;55.35;;;24.83;;
76850;SDS011;65824;43.726;20.692;2023-03-03T22:02:32;61.15;;;26.02;;
76850;SDS011;65824;43.726;20.692;2023-03-03T22:04:59;59.97;;;25.92;;
76850;SDS011;65824;43.726;20.692;2023-03-03T22:07:27;55.70;;;24.27;;
76850;SDS011;65824;43.726;20.692;2023-03-03T22:09:54;56.08;;;24.00;;
76850;SDS011;65824;43.726;20.692;2023-03-03T22:12:19;58.90;;;25.38;;
76850;SDS011;65824;43.726;20.692;2023-03-03T22:14:48;58.05;;;25.65;;